createdAt,value
2022-10-11T00:00:55.920Z,8.30
2022-10-11T00:08:22.034Z,8.10
2022-10-11T00:10:58.053Z,8.20
2022-10-11T00:13:27.959Z,8.90
2022-10-11T00:15:56.488Z,8.00
2022-10-11T00:18:25.427Z,8.60
2022-10-11T00:21:02.543Z,7.90
2022-10-11T00:25:59.714Z,8.20
2022-10-11T00:28:29.115Z,8.20
2022-10-11T00:33:25.719Z,8.60
2022-10-11T00:43:21.208Z,8.00
2022-10-11T00:46:06.754Z,8.00
2022-10-11T00:48:40.059Z,7.40
2022-10-11T00:51:15.133Z,7.70
2022-10-11T00:53:43.783Z,7.00
2022-10-11T00:56:24.877Z,7.40
2022-10-11T01:01:23.298Z,8.00
2022-10-11T01:08:48.222Z,7.20
2022-10-11T01:11:20.061Z,7.90
2022-10-11T01:14:03.651Z,7.60
2022-10-11T01:16:37.459Z,7.10
2022-10-11T01:19:17.271Z,7.30
2022-10-11T01:21:49.740Z,7.50
2022-10-11T01:24:53.539Z,7.40
2022-10-11T01:27:35.573Z,7.00
2022-10-11T01:30:25.646Z,7.50
2022-10-11T01:33:16.334Z,7.30
2022-10-11T01:35:54.360Z,6.90
2022-10-11T01:38:28.248Z,7.60
2022-10-11T01:41:00.004Z,7.10
2022-10-11T01:43:29.542Z,7.10
2022-10-11T01:46:01.441Z,6.10
2022-10-11T01:50:59.667Z,7.60
2022-10-11T01:53:46.987Z,7.60
2022-10-11T01:56:28.373Z,7.60
2022-10-11T01:59:12.127Z,7.00
2022-10-11T02:01:54.115Z,6.80
2022-10-11T02:04:32.238Z,6.90
2022-10-11T02:07:06.799Z,6.90
2022-10-11T02:09:39.311Z,6.80
2022-10-11T02:12:11.545Z,6.60
2022-10-11T02:14:44.647Z,6.90
2022-10-11T02:17:18.017Z,7.50
2022-10-11T02:19:50.539Z,7.00
2022-10-11T02:22:23.861Z,6.80
2022-10-11T02:24:56.524Z,6.80
2022-10-11T02:27:28.635Z,6.70
2022-10-11T02:29:58.531Z,7.40
2022-10-11T02:32:29.858Z,6.80
2022-10-11T02:34:59.944Z,6.80
2022-10-11T02:37:33.696Z,6.70
2022-10-11T02:40:07.833Z,7.30
2022-10-11T02:42:42.862Z,6.90
2022-10-11T02:45:17.301Z,7.10
2022-10-11T02:47:47.828Z,7.00
2022-10-11T02:50:16.544Z,6.80
2022-10-11T02:55:13.371Z,6.70
2022-10-11T03:00:10.817Z,6.50
2022-10-11T03:05:09.304Z,6.80
2022-10-11T03:10:06.205Z,7.00
2022-10-11T03:15:02.677Z,7.00
2022-10-11T03:20:05.942Z,6.50
2022-10-11T03:22:35.286Z,6.80
2022-10-11T03:32:30.289Z,6.30
2022-10-11T03:37:26.914Z,6.20
2022-10-11T03:39:56.417Z,6.40
2022-10-11T03:52:17.668Z,6.60
2022-10-11T03:57:15.424Z,6.50
2022-10-11T04:02:12.010Z,5.90
2022-10-11T04:04:40.088Z,6.30
2022-10-11T04:29:28.858Z,5.70
2022-10-11T04:32:01.639Z,6.20
2022-10-11T04:49:21.187Z,5.30
2022-10-11T05:24:01.820Z,5.60
2022-10-11T05:41:21.655Z,3.80
2022-10-11T05:58:49.963Z,4.80
2022-10-11T06:01:19.865Z,4.80
2022-10-11T06:16:14.821Z,5.00
2022-10-11T06:18:43.056Z,5.70
2022-10-11T06:21:11.302Z,5.10
2022-10-11T06:26:09.919Z,5.20
2022-10-11T06:33:38.553Z,5.00
2022-10-11T06:41:14.262Z,5.40
2022-10-11T06:46:10.766Z,6.10
2022-10-11T06:48:43.469Z,6.10
2022-10-11T07:11:08.110Z,7.00
2022-10-11T07:21:04.651Z,7.00
2022-10-11T07:23:34.840Z,7.30
2022-10-11T07:26:03.040Z,6.60
2022-10-11T07:28:31.882Z,6.90
2022-10-11T07:31:00.284Z,7.40
2022-10-11T07:35:58.812Z,7.60
2022-10-11T07:40:56.650Z,7.70
2022-10-11T07:45:55.544Z,8.40
2022-10-11T07:55:48.927Z,9.10
2022-10-11T07:58:18.357Z,8.80
2022-10-11T08:08:11.446Z,9.10
2022-10-11T08:10:40.097Z,8.80
2022-10-11T08:13:09.432Z,9.20
2022-10-11T08:15:38.901Z,9.30
2022-10-11T08:23:06.626Z,9.30
2022-10-11T08:25:39.315Z,9.70
2022-10-11T08:28:10.087Z,9.80
2022-10-11T08:30:41.282Z,9.70
2022-10-11T08:33:11.921Z,9.30
2022-10-11T08:35:41.284Z,9.80
2022-10-11T08:43:13.011Z,10.30
2022-10-11T08:45:46.996Z,10.40
2022-10-11T08:48:20.487Z,10.50
2022-10-11T08:50:53.212Z,10.30
2022-10-11T08:53:28.470Z,10.60
2022-10-11T08:55:57.043Z,10.80
2022-10-11T08:58:33.962Z,10.80
2022-10-11T09:01:04.579Z,10.70
2022-10-11T09:03:42.725Z,12.10
2022-10-11T09:06:21.221Z,11.90
2022-10-11T09:09:10.820Z,11.50
2022-10-11T09:11:52.162Z,12.90
2022-10-11T09:14:49.216Z,14.40
2022-10-11T09:17:31.504Z,15.80
2022-10-11T09:20:31.069Z,15.50
2022-10-11T09:23:03.846Z,17.30
2022-10-11T09:25:36.460Z,17.20
2022-10-11T09:28:13.462Z,18.30
2022-10-11T09:30:48.638Z,17.50
2022-10-11T09:33:22.068Z,18.10
2022-10-11T09:35:51.990Z,18.00
2022-10-11T09:38:29.053Z,18.40
2022-10-11T09:41:06.602Z,18.20
2022-10-11T09:43:34.703Z,18.80
2022-10-11T09:46:03.067Z,19.70
2022-10-11T09:48:41.327Z,19.90
2022-10-11T09:51:16.165Z,18.80
2022-10-11T09:53:56.080Z,19.30
2022-10-11T09:56:25.075Z,19.10
2022-10-11T09:59:09.100Z,19.70
2022-10-11T10:01:37.556Z,18.60
2022-10-11T10:04:09.968Z,18.30
2022-10-11T10:06:38.439Z,17.80
2022-10-11T10:09:26.472Z,17.70
2022-10-11T10:11:55.353Z,16.60
2022-10-11T10:14:26.521Z,16.40
2022-10-11T10:17:01.862Z,16.20
2022-10-11T10:19:44.811Z,14.90
2022-10-11T10:22:19.755Z,16.40
2022-10-11T10:24:49.308Z,16.70
2022-10-11T10:27:21.021Z,16.80
2022-10-11T10:30:13.232Z,17.00
2022-10-11T10:32:51.692Z,14.60
2022-10-11T10:35:37.458Z,16.90
2022-10-11T10:38:09.979Z,16.90
2022-10-11T10:40:43.742Z,17.00
2022-10-11T10:43:17.372Z,16.90
2022-10-11T10:45:59.219Z,17.20
2022-10-11T10:49:02.005Z,17.70
2022-10-11T10:51:35.755Z,18.00
2022-10-11T10:54:11.531Z,18.00
2022-10-11T10:56:46.187Z,18.10
2022-10-11T10:59:31.652Z,18.20
2022-10-11T11:02:15.946Z,17.80
2022-10-11T11:07:40.011Z,18.10
2022-10-11T11:10:15.266Z,17.90
2022-10-11T11:12:50.346Z,18.40
2022-10-11T11:15:31.314Z,18.20
2022-10-11T11:18:17.875Z,17.60
2022-10-11T11:20:58.764Z,17.20
2022-10-11T11:23:37.425Z,17.50
2022-10-11T11:26:11.487Z,16.10
2022-10-11T11:28:54.579Z,16.60
2022-10-11T11:31:33.730Z,17.60
2022-10-11T11:34:09.230Z,16.70
2022-10-11T11:36:42.807Z,17.00
2022-10-11T11:39:18.882Z,16.20
2022-10-11T11:41:51.856Z,16.40
2022-10-11T11:44:27.575Z,16.30
2022-10-11T11:47:01.032Z,16.50
2022-10-11T11:49:35.211Z,16.30
2022-10-11T11:52:05.068Z,16.70
2022-10-11T11:54:48.442Z,16.50
2022-10-11T11:57:26.807Z,16.50
2022-10-11T12:00:00.539Z,16.40
2022-10-11T12:02:44.858Z,16.10
2022-10-11T12:05:14.907Z,16.20
2022-10-11T12:07:56.667Z,15.90
2022-10-11T12:10:33.215Z,16.10
2022-10-11T12:13:31.180Z,15.70
2022-10-11T12:16:10.219Z,15.90
2022-10-11T12:18:50.817Z,15.10
2022-10-11T12:21:29.165Z,15.20
2022-10-11T12:24:00.073Z,15.80
2022-10-11T12:26:39.628Z,15.40
2022-10-11T12:29:40.372Z,13.20
2022-10-11T12:32:48.704Z,15.30
2022-10-11T12:35:42.493Z,15.10
2022-10-11T12:38:20.792Z,15.10
2022-10-11T12:40:50.128Z,15.20
2022-10-11T12:43:32.894Z,15.00
2022-10-11T12:46:34.387Z,15.70
2022-10-11T12:49:16.951Z,16.00
2022-10-11T12:51:56.595Z,16.50
2022-10-11T12:54:58.417Z,16.20
2022-10-11T12:57:49.729Z,16.30
2022-10-11T13:00:28.914Z,16.90
2022-10-11T13:05:28.472Z,17.40
2022-10-11T13:07:58.878Z,17.10
2022-10-11T13:10:31.734Z,16.70
2022-10-11T13:13:04.718Z,16.90
2022-10-11T13:15:35.487Z,17.40
2022-10-11T13:18:03.932Z,17.40
2022-10-11T13:20:37.610Z,16.90
2022-10-11T13:23:21.230Z,17.90
2022-10-11T13:25:49.526Z,17.70
2022-10-11T13:30:49.990Z,17.90
2022-10-11T13:33:22.200Z,17.90
2022-10-11T13:38:22.417Z,17.90
2022-10-11T13:40:51.388Z,16.80
2022-10-11T13:43:22.906Z,18.00
2022-10-11T13:45:53.104Z,18.10
2022-10-11T13:48:21.650Z,18.00
2022-10-11T13:51:08.052Z,17.70
2022-10-11T13:53:36.226Z,17.90
2022-10-11T13:56:06.876Z,17.20
2022-10-11T13:58:40.415Z,17.00
2022-10-11T14:01:20.551Z,16.80
2022-10-11T14:03:50.818Z,17.10
2022-10-11T14:06:18.913Z,16.70
2022-10-11T14:08:50.531Z,16.70
2022-10-11T14:11:34.542Z,16.90
2022-10-11T14:14:39.846Z,18.10
2022-10-11T14:17:15.131Z,16.90
2022-10-11T14:19:43.578Z,16.90
2022-10-11T14:22:15.068Z,16.50
2022-10-11T14:24:43.731Z,16.70
2022-10-11T14:27:17.351Z,17.10
2022-10-11T14:29:55.547Z,17.10
2022-10-11T14:32:37.257Z,17.50
2022-10-11T14:35:06.864Z,16.90
2022-10-11T14:37:34.876Z,16.60
2022-10-11T14:42:31.263Z,16.40
2022-10-11T14:44:59.227Z,16.40
2022-10-11T14:47:27.283Z,16.30
2022-10-11T14:49:56.727Z,16.60
2022-10-11T14:59:49.857Z,16.20
2022-10-11T15:07:15.791Z,16.60
2022-10-11T15:12:12.088Z,16.30
2022-10-11T15:17:08.411Z,16.40
2022-10-11T15:22:05.986Z,16.10
2022-10-11T15:24:35.364Z,16.30
2022-10-11T15:32:00.163Z,16.40
2022-10-11T15:39:30.576Z,15.70
2022-10-11T15:42:00.259Z,16.00
2022-10-11T15:44:28.283Z,14.80
2022-10-11T15:51:53.098Z,14.60
2022-10-11T15:54:21.159Z,14.90
2022-10-11T15:59:18.879Z,14.70
2022-10-11T16:01:46.978Z,14.60
2022-10-11T16:09:11.612Z,13.90
2022-10-11T16:11:39.597Z,14.40
2022-10-11T16:16:38.444Z,13.90
2022-10-11T16:24:03.283Z,13.40
2022-10-11T16:33:57.984Z,13.00
2022-10-11T16:39:15.973Z,12.50
2022-10-11T16:44:14.470Z,12.90
2022-10-11T16:49:12.434Z,11.60
2022-10-11T17:06:34.797Z,11.40
2022-10-11T17:14:01.676Z,11.00
2022-10-11T17:23:56.631Z,10.20
2022-10-11T17:26:27.229Z,10.10
2022-10-11T17:28:55.753Z,10.00
2022-10-11T17:31:24.488Z,10.10
2022-10-11T17:36:24.475Z,9.80
2022-10-11T17:38:53.529Z,9.90
2022-10-11T17:41:22.969Z,9.90
2022-10-11T17:46:22.199Z,10.80
2022-10-11T17:48:52.362Z,10.10
2022-10-11T17:51:20.578Z,10.10
2022-10-11T17:53:50.764Z,9.70
2022-10-11T17:56:25.305Z,10.20
2022-10-11T17:58:58.747Z,9.20
2022-10-11T18:01:29.417Z,9.30
2022-10-11T18:03:59.615Z,9.50
2022-10-11T18:06:29.906Z,9.30
2022-10-11T18:16:27.372Z,9.20
2022-10-11T18:18:57.319Z,9.10
2022-10-11T18:24:02.558Z,9.80
2022-10-11T18:28:59.971Z,9.10
2022-10-11T18:31:31.792Z,9.60
2022-10-11T18:36:30.689Z,9.10
2022-10-11T18:39:00.904Z,8.60
2022-10-11T18:41:31.799Z,9.00
2022-10-11T18:44:01.808Z,8.90
2022-10-11T18:46:31.898Z,8.40
2022-10-11T18:49:02.220Z,8.20
2022-10-11T18:51:32.072Z,8.20
2022-10-11T18:54:00.743Z,8.20
2022-10-11T18:56:30.635Z,8.70
2022-10-11T19:01:31.726Z,7.70
2022-10-11T19:04:01.835Z,7.90
2022-10-11T19:06:32.794Z,8.00
2022-10-11T19:09:02.734Z,7.80
2022-10-11T19:11:31.907Z,7.80
2022-10-11T19:14:01.704Z,7.40
2022-10-11T19:16:31.657Z,7.60
2022-10-11T19:21:28.489Z,7.60
2022-10-11T19:26:28.743Z,6.30
2022-10-11T19:28:58.548Z,7.80
2022-10-11T19:31:27.241Z,9.30
2022-10-11T19:33:57.801Z,7.80
2022-10-11T19:36:26.344Z,7.40
2022-10-11T19:38:56.724Z,7.60
2022-10-11T19:41:27.404Z,7.00
2022-10-11T19:49:20.237Z,7.30
2022-10-11T19:56:45.692Z,6.60
2022-10-11T20:01:46.671Z,6.60
2022-10-11T20:04:40.052Z,6.60
2022-10-11T20:12:03.899Z,6.90
2022-10-11T20:19:31.265Z,6.90
2022-10-11T20:31:58.871Z,6.70
2022-10-11T20:34:28.238Z,6.90
2022-10-11T20:36:57.641Z,6.80
2022-10-11T20:54:18.447Z,7.00
2022-10-11T21:01:43.811Z,6.00
2022-10-11T21:04:18.576Z,6.30
2022-10-11T21:11:46.987Z,6.50
2022-10-11T21:19:15.640Z,6.60
2022-10-11T21:59:17.476Z,6.50
2022-10-11T22:01:46.951Z,6.00
2022-10-11T22:19:06.478Z,5.40
2022-10-11T22:33:58.554Z,5.00
2022-10-11T23:11:11.470Z,4.70
2022-10-11T23:16:08.521Z,4.60
2022-10-11T23:21:06.214Z,5.30
2022-10-11T23:45:55.360Z,4.70
